createdAt,value
2017-11-23T00:00:52.274Z,3.97
2017-11-23T00:03:19.863Z,3.70
2017-11-23T00:05:47.448Z,3.93
2017-11-23T00:08:15.027Z,4.90
2017-11-23T00:10:42.597Z,3.40
2017-11-23T00:13:11.041Z,4.20
2017-11-23T00:15:38.614Z,3.73
2017-11-23T00:18:06.219Z,4.80
2017-11-23T00:20:33.972Z,3.90
2017-11-23T00:23:02.315Z,4.03
2017-11-23T00:25:29.879Z,3.80
2017-11-23T00:27:57.453Z,5.10
2017-11-23T00:30:25.010Z,4.37
2017-11-23T00:32:52.590Z,3.80
2017-11-23T00:35:20.939Z,4.60
2017-11-23T00:37:48.523Z,4.70
2017-11-23T00:40:17.872Z,4.60
2017-11-23T00:42:45.469Z,4.33
2017-11-23T00:45:13.043Z,4.97
2017-11-23T00:47:40.708Z,4.20
2017-11-23T00:50:09.067Z,3.73
2017-11-23T00:52:36.894Z,4.70
2017-11-23T00:55:04.458Z,4.30
2017-11-23T00:57:32.088Z,6.00
2017-11-23T01:00:00.415Z,4.90
2017-11-23T01:02:28.036Z,5.07
2017-11-23T01:04:56.399Z,4.73
2017-11-23T01:07:24.807Z,4.37
2017-11-23T01:09:52.350Z,4.00
2017-11-23T01:12:20.711Z,4.20
2017-11-23T01:14:48.275Z,3.93
2017-11-23T01:17:16.611Z,5.13
2017-11-23T01:19:44.466Z,5.03
2017-11-23T01:22:17.563Z,4.53
2017-11-23T01:24:45.456Z,4.37
2017-11-23T01:27:13.010Z,4.73
2017-11-23T01:29:40.609Z,4.90
2017-11-23T01:32:08.947Z,3.83
2017-11-23T01:34:36.633Z,4.30
2017-11-23T01:37:06.887Z,4.47
2017-11-23T01:39:35.221Z,4.73
2017-11-23T01:42:03.027Z,4.60
2017-11-23T01:44:31.382Z,4.70
2017-11-23T01:46:59.901Z,4.80
2017-11-23T01:49:27.494Z,4.90
2017-11-23T01:51:55.149Z,6.93
2017-11-23T01:54:22.719Z,4.93
2017-11-23T01:56:50.287Z,4.97
2017-11-23T01:59:17.846Z,4.33
2017-11-23T02:01:45.436Z,4.50
2017-11-23T02:04:13.355Z,4.60
2017-11-23T02:06:40.996Z,4.60
2017-11-23T02:09:08.591Z,4.87
2017-11-23T02:11:36.162Z,5.80
2017-11-23T02:14:03.735Z,5.60
2017-11-23T02:16:31.322Z,4.67
2017-11-23T02:18:59.705Z,5.87
2017-11-23T02:21:28.007Z,4.90
2017-11-23T02:23:55.563Z,4.93
2017-11-23T02:26:23.117Z,5.17
2017-11-23T02:28:50.726Z,4.73
2017-11-23T02:31:18.284Z,5.00
2017-11-23T02:33:45.872Z,4.97
2017-11-23T02:36:13.455Z,5.00
2017-11-23T02:38:41.782Z,5.10
2017-11-23T02:41:09.613Z,4.83
2017-11-23T02:43:37.167Z,4.60
2017-11-23T02:46:04.743Z,5.03
2017-11-23T02:48:32.613Z,4.37
2017-11-23T02:51:00.203Z,4.83
2017-11-23T02:53:27.820Z,4.90
2017-11-23T02:55:55.398Z,6.07
2017-11-23T02:58:22.956Z,5.43
2017-11-23T03:00:50.516Z,5.07
2017-11-23T03:03:18.211Z,5.30
2017-11-23T03:05:45.796Z,5.27
2017-11-23T03:08:13.414Z,6.37
2017-11-23T03:10:41.009Z,5.47
2017-11-23T03:13:09.423Z,5.13
2017-11-23T03:15:37.751Z,5.20
2017-11-23T03:18:05.508Z,6.93
2017-11-23T03:20:33.348Z,5.30
2017-11-23T03:23:00.927Z,6.13
2017-11-23T03:25:28.500Z,6.23
2017-11-23T03:27:56.113Z,5.40
2017-11-23T03:30:24.681Z,4.67
2017-11-23T03:32:52.336Z,5.60
2017-11-23T03:35:19.886Z,6.50
2017-11-23T03:37:47.456Z,5.47
2017-11-23T03:40:15.048Z,7.50
2017-11-23T03:42:43.403Z,6.20
2017-11-23T03:45:10.979Z,5.47
2017-11-23T03:47:39.330Z,6.00
2017-11-23T03:50:07.270Z,5.37
2017-11-23T03:52:34.829Z,5.47
2017-11-23T03:55:02.547Z,5.13
2017-11-23T03:57:30.876Z,4.93
2017-11-23T03:59:58.463Z,6.13
2017-11-23T04:02:26.024Z,5.23
2017-11-23T04:04:53.608Z,5.90
2017-11-23T04:07:21.954Z,5.23
2017-11-23T04:09:49.557Z,5.47
2017-11-23T04:12:17.972Z,6.07
2017-11-23T04:14:45.552Z,5.43
2017-11-23T04:17:13.131Z,6.07
2017-11-23T04:19:40.695Z,5.83
2017-11-23T04:22:08.382Z,5.77
2017-11-23T04:24:37.906Z,6.27
2017-11-23T04:27:05.474Z,5.80
2017-11-23T04:29:33.027Z,5.27
2017-11-23T04:32:00.624Z,5.90
2017-11-23T04:34:28.211Z,6.40
2017-11-23T04:36:55.897Z,6.23
2017-11-23T04:39:24.233Z,6.30
2017-11-23T04:41:51.795Z,6.07
2017-11-23T04:44:19.390Z,6.00
2017-11-23T04:46:46.988Z,6.33
2017-11-23T04:49:14.583Z,6.27
2017-11-23T04:51:42.171Z,6.17
2017-11-23T04:54:09.738Z,6.93
2017-11-23T04:56:38.066Z,6.80
2017-11-23T04:59:05.654Z,6.80
2017-11-23T05:01:33.234Z,6.60
2017-11-23T05:04:01.581Z,6.60
2017-11-23T05:06:29.231Z,6.93
2017-11-23T05:08:56.818Z,5.93
2017-11-23T05:11:24.514Z,6.23
2017-11-23T05:13:52.862Z,6.60
2017-11-23T05:16:20.429Z,5.80
2017-11-23T05:18:47.998Z,6.97
2017-11-23T05:21:16.365Z,5.70
2017-11-23T05:23:43.946Z,6.53
2017-11-23T05:26:12.308Z,6.20
2017-11-23T05:28:39.894Z,5.97
2017-11-23T05:31:08.246Z,5.70
2017-11-23T05:33:36.701Z,6.07
2017-11-23T05:36:04.289Z,6.13
2017-11-23T05:38:31.866Z,8.83
2017-11-23T05:41:00.214Z,7.27
2017-11-23T05:43:27.795Z,7.10
2017-11-23T05:45:55.380Z,6.87
2017-11-23T05:48:23.722Z,7.17
2017-11-23T05:50:51.293Z,7.90
2017-11-23T05:53:18.876Z,6.90
2017-11-23T05:55:47.209Z,7.50
2017-11-23T05:58:14.826Z,6.77
2017-11-23T06:00:42.508Z,6.30
2017-11-23T06:03:10.125Z,9.27
2017-11-23T06:05:37.712Z,5.50
2017-11-23T06:08:05.265Z,7.93
2017-11-23T06:10:33.594Z,6.50
2017-11-23T06:13:01.187Z,6.53
2017-11-23T06:15:28.731Z,6.77
2017-11-23T06:17:56.319Z,6.30
2017-11-23T06:20:24.650Z,6.80
2017-11-23T06:22:52.246Z,6.30
2017-11-23T06:25:19.803Z,6.93
2017-11-23T06:27:47.380Z,6.33
2017-11-23T06:30:15.775Z,5.80
2017-11-23T06:32:43.349Z,6.30
2017-11-23T06:35:10.933Z,5.87
2017-11-23T06:37:38.523Z,5.67
2017-11-23T06:40:06.147Z,5.90
2017-11-23T06:42:33.735Z,5.93
2017-11-23T06:45:01.311Z,6.60
2017-11-23T06:47:28.915Z,6.10
2017-11-23T06:49:56.507Z,6.23
2017-11-23T06:52:24.130Z,5.80
2017-11-23T06:54:51.691Z,6.77
2017-11-23T06:57:19.254Z,6.53
2017-11-23T06:59:46.834Z,6.47
2017-11-23T07:02:20.563Z,7.20
2017-11-23T07:04:51.742Z,8.23
2017-11-23T07:07:21.712Z,7.57
2017-11-23T07:09:49.293Z,7.13
2017-11-23T07:12:23.738Z,7.63
2017-11-23T07:14:53.021Z,8.03
2017-11-23T07:17:20.659Z,8.10
2017-11-23T07:19:52.113Z,8.87
2017-11-23T07:22:19.825Z,7.80
2017-11-23T07:24:48.195Z,5.90
2017-11-23T07:27:15.810Z,6.33
2017-11-23T07:29:43.395Z,5.50
2017-11-23T07:32:10.986Z,6.37
2017-11-23T07:34:39.328Z,5.83
2017-11-23T07:37:06.942Z,5.33
2017-11-23T07:39:35.283Z,6.10
2017-11-23T07:42:02.910Z,6.57
2017-11-23T07:44:30.459Z,6.13
2017-11-23T07:46:58.127Z,5.50
2017-11-23T07:49:25.697Z,6.10
2017-11-23T07:51:53.344Z,6.00
2017-11-23T07:54:20.919Z,6.13
2017-11-23T07:56:48.520Z,6.70
2017-11-23T07:59:16.135Z,6.67
2017-11-23T08:01:43.719Z,5.83
2017-11-23T08:04:11.326Z,6.90
2017-11-23T08:06:39.733Z,5.90
2017-11-23T08:09:07.290Z,7.60
2017-11-23T08:11:34.879Z,7.30
2017-11-23T08:14:02.490Z,6.63
2017-11-23T08:16:30.855Z,6.00
2017-11-23T08:18:58.432Z,6.67
2017-11-23T08:21:26.792Z,5.50
2017-11-23T08:23:54.369Z,5.40
2017-11-23T08:26:22.711Z,5.60
2017-11-23T08:28:50.360Z,5.90
2017-11-23T08:31:17.934Z,6.20
2017-11-23T08:33:45.501Z,5.80
2017-11-23T08:36:13.140Z,5.90
2017-11-23T08:38:40.712Z,5.70
2017-11-23T08:41:08.547Z,5.30
2017-11-23T08:43:36.140Z,5.70
2017-11-23T08:46:04.080Z,5.37
2017-11-23T08:48:31.623Z,5.77
2017-11-23T08:50:59.247Z,5.63
2017-11-23T08:53:33.793Z,5.50
2017-11-23T08:56:03.033Z,6.80
2017-11-23T08:58:30.617Z,5.10
2017-11-23T09:01:03.202Z,5.70
2017-11-23T09:03:30.807Z,6.03
2017-11-23T09:05:58.410Z,5.60
2017-11-23T09:08:25.992Z,5.73
2017-11-23T09:10:53.625Z,6.10
2017-11-23T09:13:21.990Z,5.90
2017-11-23T09:15:49.578Z,6.10
2017-11-23T09:18:17.147Z,6.80
2017-11-23T09:20:44.743Z,6.43
2017-11-23T09:23:13.076Z,5.07
2017-11-23T09:25:40.686Z,6.03
2017-11-23T09:28:09.037Z,7.03
2017-11-23T09:30:36.663Z,5.97
2017-11-23T09:33:04.263Z,6.23
2017-11-23T09:35:31.831Z,5.80
2017-11-23T09:37:59.426Z,8.17
2017-11-23T09:40:27.053Z,5.97
2017-11-23T09:42:54.665Z,6.47
2017-11-23T09:45:22.275Z,7.47
2017-11-23T09:47:49.914Z,5.40
2017-11-23T09:50:17.704Z,6.50
2017-11-23T09:52:45.488Z,5.27
2017-11-23T09:55:13.873Z,6.07
2017-11-23T09:57:42.240Z,5.50
2017-11-23T10:00:09.835Z,6.50
2017-11-23T10:02:37.420Z,5.50
2017-11-23T10:05:04.999Z,5.37
2017-11-23T10:07:32.542Z,5.03
2017-11-23T10:10:00.136Z,4.70
2017-11-23T10:12:27.721Z,4.73
2017-11-23T10:14:56.172Z,4.80
2017-11-23T10:17:24.589Z,4.90
2017-11-23T10:19:52.920Z,4.23
2017-11-23T10:22:20.513Z,6.00
2017-11-23T10:24:49.460Z,5.43
2017-11-23T10:27:17.071Z,5.43
2017-11-23T10:29:45.441Z,5.13
2017-11-23T10:32:13.782Z,5.10
2017-11-23T10:34:41.423Z,5.20
2017-11-23T10:37:09.822Z,5.93
2017-11-23T10:39:37.507Z,5.77
2017-11-23T10:42:06.894Z,5.33
2017-11-23T10:44:34.748Z,6.30
2017-11-23T10:47:02.624Z,4.80
2017-11-23T10:49:30.210Z,5.20
2017-11-23T10:51:57.807Z,5.20
2017-11-23T10:54:25.387Z,5.80
2017-11-23T10:56:52.977Z,5.83
2017-11-23T10:59:20.531Z,5.53
2017-11-23T11:01:48.270Z,5.73
2017-11-23T11:04:15.856Z,4.90
2017-11-23T11:06:43.423Z,5.40
2017-11-23T11:09:11.007Z,5.40
2017-11-23T11:11:38.604Z,4.83
2017-11-23T11:14:06.207Z,4.80
2017-11-23T11:16:33.777Z,5.20
2017-11-23T11:19:01.327Z,5.53
2017-11-23T11:21:28.918Z,4.97
2017-11-23T11:23:56.493Z,4.80
2017-11-23T11:26:24.867Z,4.80
2017-11-23T11:28:53.432Z,5.37
2017-11-23T11:31:21.018Z,5.87
2017-11-23T11:33:49.347Z,5.00
2017-11-23T11:36:16.949Z,4.90
2017-11-23T11:38:45.317Z,5.10
2017-11-23T11:41:12.897Z,5.23
2017-11-23T11:43:41.793Z,5.00
2017-11-23T11:46:10.190Z,5.20
2017-11-23T11:48:37.762Z,4.90
2017-11-23T11:51:05.338Z,5.33
2017-11-23T11:53:32.911Z,4.93
2017-11-23T11:56:01.773Z,5.10
2017-11-23T11:58:29.406Z,5.17
2017-11-23T12:00:57.784Z,5.43
2017-11-23T12:03:26.200Z,5.60
2017-11-23T12:05:53.766Z,5.53
2017-11-23T12:08:21.354Z,5.07
2017-11-23T12:10:48.924Z,4.43
2017-11-23T12:13:16.533Z,5.47
2017-11-23T12:15:55.798Z,4.80
2017-11-23T12:18:50.028Z,5.47
2017-11-23T12:21:26.394Z,4.80
2017-11-23T12:24:13.631Z,5.50
2017-11-23T12:26:41.272Z,5.10
2017-11-23T12:29:20.496Z,5.40
2017-11-23T12:44:48.123Z,4.83
2017-11-23T12:47:15.727Z,4.77
2017-11-23T12:49:44.090Z,4.93
2017-11-23T12:52:11.699Z,4.60
2017-11-23T12:54:39.283Z,4.80
2017-11-23T12:57:06.867Z,5.70
2017-11-23T12:59:34.442Z,5.50
2017-11-23T13:02:02.089Z,5.00
2017-11-23T13:04:29.676Z,5.57
2017-11-23T13:06:58.012Z,5.60
2017-11-23T13:09:25.547Z,4.83
2017-11-23T13:11:53.142Z,5.10
2017-11-23T13:14:20.716Z,5.53
2017-11-23T13:16:48.290Z,5.40
2017-11-23T13:19:16.684Z,5.37
2017-11-23T13:21:45.041Z,5.67
2017-11-23T13:24:12.619Z,6.70
2017-11-23T13:26:41.760Z,5.43
2017-11-23T13:29:09.343Z,4.93
2017-11-23T13:31:36.922Z,5.10
2017-11-23T13:34:04.504Z,8.20
2017-11-23T13:36:32.838Z,5.63
2017-11-23T13:39:00.439Z,5.50
2017-11-23T13:41:28.788Z,5.23
2017-11-23T13:43:56.382Z,5.10
2017-11-23T13:46:24.770Z,5.10
2017-11-23T13:48:52.342Z,6.77
2017-11-23T13:51:19.940Z,5.70
2017-11-23T13:53:47.608Z,4.90
2017-11-23T13:56:15.184Z,5.60
2017-11-23T13:58:43.535Z,5.10
2017-11-23T14:01:11.951Z,4.87
2017-11-23T14:03:39.552Z,5.03
2017-11-23T14:06:07.228Z,5.23
2017-11-23T14:08:34.837Z,4.90
2017-11-23T14:11:02.421Z,4.87
2017-11-23T14:13:30.763Z,5.07
2017-11-23T14:15:58.368Z,5.60
2017-11-23T14:18:26.049Z,5.03
2017-11-23T14:20:53.635Z,5.70
2017-11-23T14:23:21.225Z,5.90
2017-11-23T14:25:48.830Z,4.57
2017-11-23T14:28:16.438Z,6.30
2017-11-23T14:30:44.071Z,4.43
2017-11-23T14:33:11.674Z,4.67
2017-11-23T14:35:40.054Z,4.23
2017-11-23T14:38:08.428Z,5.53
2017-11-23T14:40:36.002Z,4.80
2017-11-23T14:43:05.229Z,4.30
2017-11-23T14:45:32.840Z,4.53
2017-11-23T14:48:00.396Z,6.20
2017-11-23T14:50:28.009Z,4.97
2017-11-23T14:52:55.587Z,4.97
2017-11-23T14:55:23.942Z,5.50
2017-11-23T14:57:51.706Z,4.13
2017-11-23T15:00:20.044Z,5.50
2017-11-23T15:02:47.706Z,4.87
2017-11-23T15:05:15.297Z,4.73
2017-11-23T15:07:43.626Z,3.83
2017-11-23T15:10:11.215Z,4.13
2017-11-23T15:12:38.840Z,4.70
2017-11-23T15:15:06.435Z,3.90
2017-11-23T15:17:34.113Z,4.33
2017-11-23T15:20:01.709Z,4.27
2017-11-23T15:22:29.290Z,4.17
2017-11-23T15:24:56.879Z,4.10
2017-11-23T15:27:24.473Z,3.90
2017-11-23T15:29:52.876Z,4.30
2017-11-23T15:32:20.451Z,4.70
2017-11-23T15:34:48.023Z,4.30
2017-11-23T15:37:15.615Z,4.10
2017-11-23T15:39:43.237Z,4.50
2017-11-23T15:42:10.851Z,4.50
2017-11-23T15:44:38.501Z,5.10
2017-11-23T15:47:06.243Z,5.00
2017-11-23T15:49:33.833Z,5.40
2017-11-23T15:52:01.430Z,4.50
2017-11-23T15:54:29.045Z,5.30
2017-11-23T15:56:56.651Z,5.03
2017-11-23T15:59:24.228Z,5.17
2017-11-23T16:01:51.883Z,4.57
2017-11-23T16:04:19.528Z,5.47
2017-11-23T16:06:47.117Z,4.77
2017-11-23T16:09:14.740Z,4.70
2017-11-23T16:11:43.105Z,4.80
2017-11-23T16:14:10.772Z,5.03
2017-11-23T16:16:39.224Z,4.20
2017-11-23T16:19:06.830Z,5.13
2017-11-23T16:21:35.172Z,5.90
2017-11-23T16:24:02.776Z,5.00
2017-11-23T16:26:30.352Z,7.53
2017-11-23T16:28:57.927Z,5.80
2017-11-23T16:31:25.522Z,8.40
2017-11-23T16:33:53.112Z,5.77
2017-11-23T16:36:22.222Z,9.20
2017-11-23T16:39:06.364Z,6.60
2017-11-23T16:41:36.539Z,6.57
2017-11-23T16:44:09.747Z,6.60
2017-11-23T16:46:55.005Z,5.93
2017-11-23T16:49:28.284Z,6.70
2017-11-23T16:52:01.620Z,6.90
2017-11-23T16:54:35.444Z,5.90
2017-11-23T16:57:09.389Z,5.93
2017-11-23T16:59:40.757Z,7.83
2017-11-23T17:02:14.045Z,5.40
2017-11-23T17:04:47.403Z,5.07
2017-11-23T17:07:31.423Z,6.90
2017-11-23T17:10:04.568Z,6.03
2017-11-23T17:12:37.636Z,6.10
2017-11-23T17:15:21.364Z,6.10
2017-11-23T17:17:55.242Z,6.90
2017-11-23T17:20:26.265Z,8.60
2017-11-23T17:22:53.854Z,5.70
2017-11-23T17:25:21.471Z,7.43
2017-11-23T17:27:49.096Z,6.40
2017-11-23T17:30:17.444Z,9.00
2017-11-23T17:32:45.031Z,7.47
2017-11-23T17:35:13.372Z,8.17
2017-11-23T17:37:40.957Z,7.50
2017-11-23T17:40:08.567Z,7.80
2017-11-23T17:42:36.142Z,6.30
2017-11-23T17:45:03.778Z,7.23
2017-11-23T17:47:31.385Z,7.23
2017-11-23T17:50:02.136Z,9.40
2017-11-23T17:52:29.797Z,7.10
2017-11-23T17:54:57.392Z,7.13
2017-11-23T17:57:25.019Z,7.77
2017-11-23T17:59:52.610Z,8.10
2017-11-23T18:02:20.976Z,8.13
2017-11-23T18:04:49.457Z,8.70
2017-11-23T18:07:17.078Z,7.90
2017-11-23T18:09:46.750Z,10.97
2017-11-23T18:12:14.343Z,8.43
2017-11-23T18:14:41.955Z,9.50
2017-11-23T18:17:10.704Z,8.03
2017-11-23T18:19:38.380Z,7.50
2017-11-23T18:22:06.013Z,7.17
2017-11-23T18:24:33.621Z,7.53
2017-11-23T18:27:01.297Z,6.87
2017-11-23T18:29:28.944Z,7.50
2017-11-23T18:31:56.585Z,7.50
2017-11-23T18:34:24.230Z,6.97
2017-11-23T18:36:51.853Z,6.90
2017-11-23T18:39:20.250Z,7.90
2017-11-23T18:41:49.062Z,9.50
2017-11-23T18:44:16.673Z,6.80
2017-11-23T18:46:45.097Z,6.43
2017-11-23T18:49:12.690Z,5.73
2017-11-23T18:51:40.280Z,5.03
2017-11-23T18:54:08.644Z,5.53
2017-11-23T18:56:36.229Z,7.27
2017-11-23T18:59:04.615Z,6.60
2017-11-23T19:01:32.970Z,6.00
2017-11-23T19:04:01.336Z,6.33
2017-11-23T19:06:28.950Z,5.43
2017-11-23T19:08:56.572Z,6.90
2017-11-23T19:11:24.156Z,5.27
2017-11-23T19:13:51.738Z,5.50
2017-11-23T19:16:19.359Z,5.47
2017-11-23T19:18:47.035Z,5.03
2017-11-23T19:21:15.449Z,4.87
2017-11-23T19:23:43.073Z,4.60
2017-11-23T19:26:11.500Z,3.73
2017-11-23T19:28:39.402Z,3.93
2017-11-23T19:31:06.979Z,3.70
2017-11-23T19:33:35.946Z,3.67
2017-11-23T19:36:04.326Z,3.67
2017-11-23T19:38:31.940Z,4.20
2017-11-23T19:40:59.617Z,3.20
2017-11-23T19:46:01.185Z,5.80
2017-11-23T19:48:28.833Z,3.80
2017-11-23T19:50:56.435Z,3.57
2017-11-23T19:53:24.052Z,3.60
2017-11-23T19:55:52.963Z,4.77
2017-11-23T19:58:20.870Z,4.53
2017-11-23T20:00:48.512Z,3.80
2017-11-23T20:03:16.114Z,2.70
2017-11-23T20:05:44.539Z,3.67
2017-11-23T20:08:12.116Z,4.00
2017-11-23T20:10:39.788Z,3.13
2017-11-23T20:13:07.405Z,4.30
2017-11-23T20:15:35.090Z,2.97
2017-11-23T20:18:02.732Z,4.80
2017-11-23T20:20:30.325Z,4.57
2017-11-23T20:22:58.037Z,3.27
2017-11-23T20:25:26.437Z,3.77
2017-11-23T20:27:54.807Z,3.30
2017-11-23T20:30:23.872Z,4.30
2017-11-23T20:32:51.474Z,3.67
2017-11-23T20:35:20.013Z,6.43
2017-11-23T20:37:48.632Z,4.50
2017-11-23T20:40:19.943Z,4.50
2017-11-23T20:42:47.696Z,3.23
2017-11-23T20:45:15.407Z,3.77
2017-11-23T20:47:44.742Z,3.57
2017-11-23T20:50:12.719Z,3.73
2017-11-23T20:52:41.379Z,6.10
2017-11-23T20:55:10.656Z,3.43
2017-11-23T20:57:38.513Z,3.00
2017-11-23T21:00:09.200Z,3.40
2017-11-23T21:02:39.564Z,4.23
2017-11-23T21:05:07.202Z,4.03
2017-11-23T21:07:35.647Z,3.50
2017-11-23T21:10:04.166Z,3.60
2017-11-23T21:12:31.984Z,3.10
2017-11-23T21:15:00.376Z,2.70
2017-11-23T21:17:29.427Z,2.90
2017-11-23T21:19:57.084Z,4.63
2017-11-23T21:22:24.662Z,3.40
2017-11-23T21:24:52.249Z,3.10
2017-11-23T21:27:20.725Z,3.50
2017-11-23T21:29:48.427Z,3.67
2017-11-23T21:32:16.072Z,3.67
2017-11-23T21:34:43.644Z,4.70
2017-11-23T21:37:11.229Z,4.17
2017-11-23T21:39:38.804Z,3.27
2017-11-23T21:42:06.384Z,3.30
2017-11-23T21:44:34.845Z,5.20
2017-11-23T21:47:02.465Z,3.30
2017-11-23T21:49:30.113Z,3.43
2017-11-23T21:51:57.757Z,3.40
2017-11-23T21:54:25.365Z,3.50
2017-11-23T21:56:53.454Z,4.03
2017-11-23T21:59:21.069Z,3.47
2017-11-23T22:01:49.424Z,3.57
2017-11-23T22:04:17.014Z,2.97
2017-11-23T22:06:44.610Z,3.87
2017-11-23T22:09:12.208Z,3.50
2017-11-23T22:11:39.813Z,3.63
2017-11-23T22:14:07.405Z,3.97
2017-11-23T22:16:35.017Z,2.77
2017-11-23T22:19:03.365Z,3.53
2017-11-23T22:21:30.976Z,3.50
2017-11-23T22:23:59.589Z,2.77
2017-11-23T22:26:27.176Z,4.60
2017-11-23T22:28:55.610Z,3.10
2017-11-23T22:31:23.302Z,4.17
2017-11-23T22:33:50.893Z,3.90
2017-11-23T22:36:18.512Z,5.07
2017-11-23T22:38:46.091Z,5.83
2017-11-23T22:41:13.675Z,6.13
2017-11-23T22:43:41.247Z,4.40
2017-11-23T22:46:09.588Z,4.03
2017-11-23T22:48:37.156Z,5.23
2017-11-23T22:51:04.739Z,4.80
2017-11-23T22:53:33.774Z,4.10
2017-11-23T22:56:01.364Z,5.53
2017-11-23T22:58:28.953Z,4.60
2017-11-23T23:00:56.903Z,4.17
2017-11-23T23:03:24.510Z,6.10
2017-11-23T23:05:52.862Z,5.83
2017-11-23T23:08:20.506Z,4.67
2017-11-23T23:10:48.112Z,5.33
2017-11-23T23:13:15.699Z,5.67
2017-11-23T23:15:43.262Z,5.70
2017-11-23T23:18:11.664Z,5.23
2017-11-23T23:20:39.219Z,4.70
2017-11-23T23:23:06.845Z,4.77
2017-11-23T23:25:34.465Z,3.40
2017-11-23T23:28:02.077Z,4.80
2017-11-23T23:30:29.672Z,5.23
2017-11-23T23:32:57.260Z,5.33
2017-11-23T23:35:25.682Z,6.00
2017-11-23T23:37:53.276Z,5.40
2017-11-23T23:40:20.938Z,4.90
2017-11-23T23:42:48.575Z,3.63
2017-11-23T23:45:16.146Z,6.60
2017-11-23T23:47:43.775Z,4.80
2017-11-23T23:50:11.351Z,3.93
2017-11-23T23:52:38.933Z,3.70
2017-11-23T23:55:07.393Z,4.20
2017-11-23T23:57:34.962Z,4.50
